Time;durP1;ratioP1;P1;durP2;ratioP2;P2;SDS_P1;SDS_P2;PMS_P1;PMS_P2;Temp;Humidity;BMP_temperature;BMP_pressure;BME280_temperature;BME280_humidity;BME280_pressure;Samples;Min_cycle;Max_cycle;Signal;HPM_P1;HPM_P2
2021/01/18 00:00:09;;;;;;;23.08;13.23;;;;;;;-2.37;66.94;101691.50;691966;28;46356;-61
2021/01/18 00:00:32;;;;;;;24.63;13.50;;;;;;;-2.36;66.87;101692.34;691462;28;61488;-62
2021/01/18 00:00:53;;;;;;;25.02;13.73;;;;;;;-2.36;67.15;101690.53;691084;28;69463;-64
2021/01/18 00:01:14;;;;;;;22.80;13.60;;;;;;;-2.33;66.91;101686.06;692895;28;22534;-62
2021/01/18 00:01:37;;;;;;;23.45;13.13;;;;;;;-2.33;67.08;101691.34;692882;28;21536;-64
2021/01/18 00:02:04;;;;;;;24.20;13.15;;;;;;;-2.32;67.07;101687.75;690957;28;70239;-61
2021/01/18 00:02:28;;;;;;;21.20;12.60;;;;;;;-2.33;67.12;101692.19;688908;28;137257;-63
2021/01/18 00:02:49;;;;;;;19.53;12.20;;;;;;;-2.31;67.06;101690.34;690801;28;83303;-63
2021/01/18 00:03:10;;;;;;;20.77;12.55;;;;;;;-2.32;67.32;101683.34;691723;28;47390;-62
2021/01/18 00:03:32;;;;;;;24.30;12.88;;;;;;;-2.34;67.06;101690.47;692564;28;22396;-61
2021/01/18 00:03:53;;;;;;;25.60;13.10;;;;;;;-2.33;67.06;101686.91;691879;28;46065;-63
2021/01/18 00:04:15;;;;;;;23.85;13.00;;;;;;;-2.32;67.16;101687.75;691876;28;23439;-62
2021/01/18 00:04:36;;;;;;;23.90;12.77;;;;;;;-2.31;67.16;101695.63;693217;28;46319;-61
2021/01/18 00:04:57;;;;;;;23.50;13.27;;;;;;;-2.32;66.92;101686.00;691989;28;22443;-63
2021/01/18 00:05:19;;;;;;;23.35;12.98;;;;;;;-2.30;66.95;101692.06;693300;28;9935;-61
2021/01/18 00:05:40;;;;;;;23.15;12.63;;;;;;;-2.30;66.79;101686.78;692608;28;20251;-62
2021/01/18 00:06:01;;;;;;;24.92;13.10;;;;;;;-2.31;66.92;101687.69;690004;28;14544;-63
2021/01/18 00:06:25;;;;;;;22.63;12.85;;;;;;;-2.30;66.94;101689.41;690609;28;896;-63
2021/01/18 00:06:46;;;;;;;22.73;13.48;;;;;;;-2.30;66.98;101683.28;688950;28;34148;-62
2021/01/18 00:07:08;;;;;;;23.90;12.95;;;;;;;-2.32;66.77;101688.63;690086;28;46407;-61
2021/01/18 00:07:29;;;;;;;24.88;13.25;;;;;;;-2.33;66.79;101683.41;689965;28;13374;-63
2021/01/18 00:07:51;;;;;;;23.98;13.20;;;;;;;-2.38;66.89;101676.53;690662;28;24387;-62
2021/01/18 00:08:13;;;;;;;20.88;12.05;;;;;;;-2.38;66.81;101684.47;691973;28;46352;-61
2021/01/18 00:08:35;;;;;;;22.38;12.48;;;;;;;-2.37;66.95;101682.69;693330;28;907;-64
2021/01/18 00:08:56;;;;;;;20.73;12.35;;;;;;;-2.36;66.97;101679.13;692640;28;23517;-63
2021/01/18 00:09:17;;;;;;;23.00;12.98;;;;;;;-2.37;66.96;101680.91;693054;28;11448;-64
2021/01/18 00:09:39;;;;;;;22.63;13.20;;;;;;;-2.36;66.88;101681.75;693937;28;21621;-64
2021/01/18 00:10:01;;;;;;;22.23;12.50;;;;;;;-2.36;67.02;101685.25;689680;28;67213;-64
2021/01/18 00:10:24;;;;;;;23.63;13.05;;;;;;;-2.36;66.99;101679.97;690629;28;23572;-62
2021/01/18 00:10:45;;;;;;;25.52;13.70;;;;;;;-2.34;66.91;101685.19;689930;28;56950;-63
2021/01/18 00:11:06;;;;;;;23.42;12.68;;;;;;;-2.33;67.00;101678.97;691411;28;22301;-64
2021/01/18 00:11:28;;;;;;;24.52;13.30;;;;;;;-2.32;66.92;101680.69;691671;28;13202;-62
2021/01/18 00:11:49;;;;;;;22.48;13.07;;;;;;;-2.33;66.69;101680.78;690576;28;44088;-64
2021/01/18 00:12:10;;;;;;;21.25;12.25;;;;;;;-2.33;66.89;101683.41;692384;28;46310;-63
2021/01/18 00:12:32;;;;;;;21.95;12.77;;;;;;;-2.35;66.78;101678.19;692357;28;22421;-64
2021/01/18 00:12:55;;;;;;;20.45;12.80;;;;;;;-2.36;66.71;101677.31;692593;28;23471;-61
2021/01/18 00:13:16;;;;;;;19.92;12.95;;;;;;;-2.35;66.65;101678.19;691304;28;67554;-64
2021/01/18 00:13:38;;;;;;;20.33;12.48;;;;;;;-2.36;66.66;101673.81;692443;28;22424;-64
2021/01/18 00:13:59;;;;;;;22.75;12.95;;;;;;;-2.38;66.82;101673.88;691016;28;69324;-64
2021/01/18 00:14:21;;;;;;;22.95;12.18;;;;;;;-2.39;66.78;101677.44;692840;28;22436;-63
2021/01/18 00:14:42;;;;;;;23.80;12.65;;;;;;;-2.38;66.80;101676.53;693927;28;21301;-63
2021/01/18 00:15:05;;;;;;;23.23;13.02;;;;;;;-2.37;66.77;101672.97;691979;28;44985;-63
2021/01/18 00:15:26;;;;;;;23.65;13.68;;;;;;;-2.37;66.81;101672.97;691424;28;44194;-63
2021/01/18 00:15:48;;;;;;;24.27;13.45;;;;;;;-2.38;66.79;101671.25;691166;28;45302;-63
2021/01/18 00:16:11;;;;;;;25.77;13.70;;;;;;;-2.40;67.01;101673.09;693473;28;4144;-63
2021/01/18 00:16:33;;;;;;;24.98;12.77;;;;;;;-2.40;66.80;101674.88;690298;28;83789;-62
2021/01/18 00:16:54;;;;;;;25.40;12.82;;;;;;;-2.38;66.96;101665.09;692751;28;15297;-63
2021/01/18 00:17:16;;;;;;;25.75;13.07;;;;;;;-2.36;66.92;101669.38;694027;28;22379;-63
2021/01/18 00:17:37;;;;;;;24.45;13.40;;;;;;;-2.35;67.09;101667.63;692051;28;46424;-64
2021/01/18 00:17:58;;;;;;;23.50;13.52;;;;;;;-2.35;67.08;101670.25;693659;28;869;-63
2021/01/18 00:18:19;;;;;;;21.30;12.93;;;;;;;-2.34;67.06;101671.09;692118;28;47081;-63
2021/01/18 00:18:41;;;;;;;23.75;12.70;;;;;;;-2.36;66.88;101666.72;692382;28;22534;-63
2021/01/18 00:19:02;;;;;;;24.58;13.02;;;;;;;-2.33;66.89;101673.69;691447;28;44345;-64
2021/01/18 00:19:24;;;;;;;22.42;12.82;;;;;;;-2.37;67.18;101667.69;692847;28;22481;-63
2021/01/18 00:19:45;;;;;;;22.83;12.73;;;;;;;-2.37;66.81;101670.31;694067;28;22431;-62
2021/01/18 00:20:07;;;;;;;23.23;13.02;;;;;;;-2.36;67.20;101668.53;692301;28;41168;-61
2021/01/18 00:20:29;;;;;;;24.08;13.23;;;;;;;-2.37;67.17;101664.16;691691;28;46343;-63
2021/01/18 00:20:50;;;;;;;24.48;13.18;;;;;;;-2.37;67.00;101665.03;691757;28;44413;-63
2021/01/18 00:21:11;;;;;;;24.90;13.70;;;;;;;-2.35;67.14;101667.63;692997;28;13198;-63
2021/01/18 00:21:33;;;;;;;24.73;13.50;;;;;;;-2.35;67.14;101659.69;692665;28;22403;-63
2021/01/18 00:21:54;;;;;;;23.42;12.80;;;;;;;-2.33;67.02;101670.19;692951;28;22425;-64
2021/01/18 00:22:16;;;;;;;24.30;13.18;;;;;;;-2.36;66.96;101669.38;693093;28;47201;-63
2021/01/18 00:22:38;;;;;;;25.77;13.50;;;;;;;-2.36;67.04;101661.44;692836;28;21547;-62
2021/01/18 00:22:59;;;;;;;23.10;13.05;;;;;;;-2.38;66.99;101658.00;690479;28;70428;-63
2021/01/18 00:23:20;;;;;;;23.73;12.88;;;;;;;-2.33;66.86;101659.59;691953;28;21673;-64
2021/01/18 00:23:42;;;;;;;24.20;12.93;;;;;;;-2.33;67.08;101662.25;692757;28;15298;-62
2021/01/18 00:24:04;;;;;;;24.95;13.50;;;;;;;-2.32;66.94;101662.19;692663;28;30673;-64
2021/01/18 00:24:25;;;;;;;23.27;13.00;;;;;;;-2.31;67.08;101669.16;691989;28;44427;-64
2021/01/18 00:24:48;;;;;;;22.83;13.00;;;;;;;-2.31;66.82;101658.59;692661;28;22388;-63
2021/01/18 00:25:11;;;;;;;25.60;13.80;;;;;;;-2.30;66.84;101664.75;691130;28;69500;-62
2021/01/18 00:25:32;;;;;;;24.88;13.60;;;;;;;-2.30;66.89;101665.59;691831;28;43134;-63
2021/01/18 00:25:54;;;;;;;24.02;13.07;;;;;;;-2.30;67.02;101662.09;692906;28;22386;-63
2021/01/18 00:26:15;;;;;;;23.17;12.98;;;;;;;-2.30;66.97;101664.75;691867;28;44391;-63
2021/01/18 00:26:45;;;;;;;23.15;12.93;;;;;;;-2.33;66.97;101660.44;691773;28;39061;-63
2021/01/18 00:27:08;;;;;;;20.98;13.13;;;;;;;-2.36;66.91;101656.16;692219;28;61755;-61
2021/01/18 00:27:30;;;;;;;22.00;12.98;;;;;;;-2.31;66.93;101665.66;692053;28;40349;-62
2021/01/18 00:27:52;;;;;;;24.92;13.13;;;;;;;-2.36;66.85;101656.16;692048;28;21655;-63
2021/01/18 00:28:13;;;;;;;22.88;12.80;;;;;;;-2.34;66.89;101660.53;692240;28;46267;-63
2021/01/18 00:28:37;;;;;;;23.63;12.73;;;;;;;-2.36;66.88;101663.25;692602;28;15735;-62
2021/01/18 00:28:58;;;;;;;25.92;13.75;;;;;;;-2.37;66.62;101669.44;692806;28;22060;-63
2021/01/18 00:29:19;;;;;;;26.17;14.05;;;;;;;-2.38;66.85;101663.31;692840;28;23442;-62
2021/01/18 00:29:40;;;;;;;23.90;13.00;;;;;;;-2.39;66.74;101652.78;693765;28;22505;-62
2021/01/18 00:30:06;;;;;;;20.35;12.68;;;;;;;-2.39;66.71;101664.22;691522;28;39716;-63
2021/01/18 00:30:28;;;;;;;23.48;12.98;;;;;;;-2.39;66.67;101658.09;688780;28;138448;-63
2021/01/18 00:30:49;;;;;;;25.95;13.13;;;;;;;-2.38;67.01;101657.16;692577;28;22189;-63
2021/01/18 00:31:11;;;;;;;25.23;13.00;;;;;;;-2.38;66.74;101665.09;692853;28;21422;-63
2021/01/18 00:31:32;;;;;;;22.92;12.45;;;;;;;-2.39;66.74;101661.56;692301;28;25760;-63
2021/01/18 00:31:53;;;;;;;23.05;13.00;;;;;;;-2.41;66.72;101660.81;692438;28;23478;-63
2021/01/18 00:32:15;;;;;;;25.50;13.30;;;;;;;-2.44;66.79;101653.00;693759;28;21536;-63
2021/01/18 00:32:36;;;;;;;25.52;12.63;;;;;;;-2.40;67.01;101664.28;691749;28;45820;-64
2021/01/18 00:32:59;;;;;;;24.17;12.65;;;;;;;-2.42;67.10;101648.50;692197;28;34103;-63
2021/01/18 00:33:21;;;;;;;22.48;12.88;;;;;;;-2.42;66.71;101660.88;690878;28;69530;-64
2021/01/18 00:33:42;;;;;;;23.48;13.85;;;;;;;-2.44;66.96;101655.66;692335;28;21520;-64
2021/01/18 00:34:03;;;;;;;22.13;12.68;;;;;;;-2.43;66.94;101654.72;692830;28;22438;-63
2021/01/18 00:34:24;;;;;;;22.85;12.82;;;;;;;-2.45;66.74;101656.56;692732;28;23489;-63
2021/01/18 00:34:46;;;;;;;24.13;13.60;;;;;;;-2.44;67.01;101660.09;692983;28;46370;-64
2021/01/18 00:35:08;;;;;;;24.10;13.20;;;;;;;-2.45;66.89;101650.44;692570;28;22413;-63
2021/01/18 00:35:31;;;;;;;25.10;13.15;;;;;;;-2.45;66.85;101656.56;691448;28;44401;-63
2021/01/18 00:35:53;;;;;;;27.75;13.15;;;;;;;-2.43;66.98;101654.72;690406;28;91936;-63
2021/01/18 00:36:14;;;;;;;24.40;12.85;;;;;;;-2.45;67.03;101655.72;692155;28;21367;-63
2021/01/18 00:36:35;;;;;;;24.67;12.63;;;;;;;-2.44;66.85;101646.88;692311;28;21487;-63
2021/01/18 00:36:57;;;;;;;25.65;13.20;;;;;;;-2.44;67.02;101647.72;692187;28;22441;-63
2021/01/18 00:37:18;;;;;;;26.92;13.60;;;;;;;-2.44;66.78;101657.44;693262;28;8843;-63
2021/01/18 00:37:41;;;;;;;23.48;13.40;;;;;;;-2.45;66.92;101656.56;692656;28;23531;-63
2021/01/18 00:38:03;;;;;;;22.10;13.25;;;;;;;-2.46;66.61;101649.59;691668;28;46436;-62
2021/01/18 00:38:24;;;;;;;23.40;13.02;;;;;;;-2.45;67.09;101642.50;691360;28;44285;-63
2021/01/18 00:38:45;;;;;;;24.45;13.18;;;;;;;-2.46;67.03;101651.34;692788;28;23453;-64
2021/01/18 00:39:06;;;;;;;24.95;13.73;;;;;;;-2.47;66.97;101647.00;689199;28;40858;-64
2021/01/18 00:39:36;;;;;;;22.50;12.70;;;;;;;-2.51;67.02;101646.25;689898;28;19912;-63
2021/01/18 00:39:58;;;;;;;23.15;12.88;;;;;;;-2.51;66.91;101654.19;684892;28;160924;-63
2021/01/18 00:40:21;;;;;;;22.63;13.35;;;;;;;-2.51;67.05;101654.19;688298;28;68445;-63
2021/01/18 00:40:42;;;;;;;24.33;13.35;;;;;;;-2.51;67.14;101646.25;688743;28;46309;-63
2021/01/18 00:41:04;;;;;;;24.67;13.70;;;;;;;-2.53;66.99;101646.34;690910;28;46219;-63
2021/01/18 00:41:25;;;;;;;24.05;13.68;;;;;;;-2.52;67.18;101647.22;692825;28;22205;-63
2021/01/18 00:41:46;;;;;;;24.48;13.60;;;;;;;-2.53;67.24;101642.84;691993;28;44396;-63
2021/01/18 00:42:07;;;;;;;23.83;13.50;;;;;;;-2.53;67.32;101642.84;693882;28;21525;-63
2021/01/18 00:42:29;;;;;;;25.88;13.38;;;;;;;-2.54;67.11;101641.13;689413;28;22359;-63
2021/01/18 00:42:50;;;;;;;25.65;13.10;;;;;;;-2.54;67.29;101646.41;688771;28;44376;-63
2021/01/18 00:43:12;;;;;;;23.52;12.88;;;;;;;-2.56;67.32;101641.19;687065;28;23487;-64
2021/01/18 00:43:33;;;;;;;21.10;12.82;;;;;;;-2.55;67.37;101642.91;686029;28;46351;-63
2021/01/18 00:43:54;;;;;;;24.17;13.35;;;;;;;-2.55;67.39;101642.91;687114;28;21573;-63
2021/01/18 00:44:16;;;;;;;23.98;13.52;;;;;;;-2.55;67.28;101642.91;687812;28;22350;-63
2021/01/18 00:44:37;;;;;;;23.33;12.88;;;;;;;-2.53;67.36;101642.84;690392;28;37159;-64
2021/01/18 00:44:59;;;;;;;22.85;13.23;;;;;;;-2.52;67.47;101644.56;690381;28;23510;-63
2021/01/18 00:45:22;;;;;;;25.17;13.50;;;;;;;-2.52;67.22;101649.88;691562;28;46073;-61
2021/01/18 00:45:44;;;;;;;23.88;12.85;;;;;;;-2.53;67.44;101654.28;690897;28;69434;-63
2021/01/18 00:46:05;;;;;;;21.98;12.60;;;;;;;-2.55;67.22;101653.50;692875;28;22179;-64
2021/01/18 00:46:26;;;;;;;22.67;13.20;;;;;;;-2.56;67.32;101649.13;692411;28;22434;-63
2021/01/18 00:46:47;;;;;;;24.55;13.80;;;;;;;-2.57;67.28;101647.44;688417;28;21494;-63
2021/01/18 00:47:09;;;;;;;24.05;13.15;;;;;;;-2.58;67.33;101650.13;689832;28;23732;-63
2021/01/18 00:47:33;;;;;;;24.55;13.55;;;;;;;-2.63;67.51;101647.69;689162;28;46425;-60
2021/01/18 00:47:55;;;;;;;27.42;13.32;;;;;;;-2.61;67.41;101651.13;687085;28;91110;-62
2021/01/18 00:48:17;;;;;;;23.90;12.88;;;;;;;-2.63;67.33;101654.78;687640;28;67583;-64
2021/01/18 00:48:38;;;;;;;23.08;12.88;;;;;;;-2.64;67.27;101648.63;690806;28;1065;-63
2021/01/18 00:49:00;;;;;;;24.58;13.15;;;;;;;-2.64;67.46;101655.69;688573;28;46347;-62
2021/01/18 00:49:22;;;;;;;24.60;13.27;;;;;;;-2.65;67.55;101646.91;685366;28;46391;-63
2021/01/18 00:49:43;;;;;;;22.90;13.07;;;;;;;-2.67;67.49;101651.41;685643;28;23391;-62
2021/01/18 00:50:05;;;;;;;23.35;12.88;;;;;;;-2.66;67.49;101649.63;684981;28;22440;-62
2021/01/18 00:50:30;;;;;;;25.13;13.40;;;;;;;-2.67;67.64;101646.13;680515;29;59033;-63
2021/01/18 00:50:52;;;;;;;23.52;12.80;;;;;;;-2.66;67.57;101647.84;680607;28;92396;-63
2021/01/18 00:51:13;;;;;;;23.67;13.15;;;;;;;-2.64;67.61;101650.41;684812;28;44393;-63
2021/01/18 00:51:35;;;;;;;24.02;12.90;;;;;;;-2.63;67.55;101653.00;686933;28;17282;-61
2021/01/18 00:51:57;;;;;;;24.10;13.07;;;;;;;-2.60;67.43;101652.84;683951;28;65450;-63
2021/01/18 00:52:18;;;;;;;27.30;13.82;;;;;;;-2.60;67.50;101650.22;688066;28;19330;-63
2021/01/18 00:52:41;;;;;;;27.33;14.48;;;;;;;-2.59;67.48;101651.06;686790;28;46251;-62
2021/01/18 00:53:02;;;;;;;23.75;13.55;;;;;;;-2.59;67.55;101649.25;683698;28;46377;-63
2021/01/18 00:53:27;;;;;;;22.50;12.80;;;;;;;-2.61;67.50;101643.19;678568;29;113620;-64
2021/01/18 00:53:49;;;;;;;24.30;13.50;;;;;;;-2.61;67.41;101645.00;678979;29;40206;-63
2021/01/18 00:54:10;;;;;;;24.10;13.63;;;;;;;-2.60;67.43;101644.03;681556;28;23491;-60
2021/01/18 00:54:41;;;;;;;22.90;13.15;;;;;;;-2.65;67.40;101636.34;677242;29;136141;-64
2021/01/18 00:55:19;;;;;;;21.90;12.80;;;;;;;-2.63;67.45;101646.84;678025;28;137433;-62
2021/01/18 00:55:56;;;;;;;24.98;13.68;;;;;;;-2.63;67.33;101642.41;678763;28;158777;-62
2021/01/18 00:56:36;;;;;;;23.45;13.80;;;;;;;-2.64;67.58;101643.34;679735;28;138617;-63
2021/01/18 00:56:59;;;;;;;24.55;13.45;;;;;;;-2.64;67.36;101647.78;682429;28;46416;-62
2021/01/18 00:57:33;;;;;;;23.40;12.90;;;;;;;-2.63;67.63;101647.69;683630;28;136523;-62
2021/01/18 00:57:57;;;;;;;23.55;13.27;;;;;;;-2.63;67.42;101646.84;682647;28;63977;-61
2021/01/18 00:58:18;;;;;;;23.90;13.15;;;;;;;-2.63;67.54;101646.84;682782;28;46415;-63
2021/01/18 00:58:58;;;;;;;25.60;14.02;;;;;;;-2.63;67.43;101644.22;685369;28;125483;-63
2021/01/18 00:59:37;;;;;;;22.35;13.52;;;;;;;-2.65;67.38;101639.00;682674;28;132700;-64
2021/01/18 01:00:05;;;;;;;26.13;13.85;;;;;;;-2.64;67.47;101650.41;685871;28;46284;-64
2021/01/18 01:00:29;;;;;;;24.48;13.63;;;;;;;-2.65;67.63;101641.63;680585;28;159194;-63
2021/01/18 01:00:50;;;;;;;23.00;12.70;;;;;;;-2.64;67.60;101648.63;684423;28;64322;-63
2021/01/18 01:01:14;;;;;;;23.27;13.02;;;;;;;-2.65;67.46;101643.41;683085;28;89768;-63
2021/01/18 01:01:37;;;;;;;24.20;13.65;;;;;;;-2.65;67.40;101632.81;685127;28;38816;-63
2021/01/18 01:02:00;;;;;;;24.88;13.52;;;;;;;-2.65;67.46;101641.63;687449;28;69427;-63
2021/01/18 01:02:23;;;;;;;24.10;13.35;;;;;;;-2.65;67.63;101636.34;684518;28;90800;-64
2021/01/18 01:02:46;;;;;;;22.85;13.25;;;;;;;-2.66;67.59;101634.63;685325;28;23264;-62
2021/01/18 01:03:08;;;;;;;21.05;13.48;;;;;;;-2.64;67.40;101642.47;682903;28;66252;-62
2021/01/18 01:03:29;;;;;;;23.58;13.45;;;;;;;-2.65;67.61;101633.69;684145;28;44250;-61
2021/01/18 01:03:50;;;;;;;24.63;13.77;;;;;;;-2.62;67.46;101638.81;685147;28;22433;-63
2021/01/18 01:04:12;;;;;;;27.23;14.27;;;;;;;-2.64;67.29;101637.19;687720;28;22412;-63
2021/01/18 01:04:33;;;;;;;24.10;13.73;;;;;;;-2.64;67.40;101639.84;690599;28;21735;-63
2021/01/18 01:04:54;;;;;;;24.63;14.15;;;;;;;-2.63;67.64;101644.22;692106;28;22417;-62
2021/01/18 01:05:17;;;;;;;26.73;13.77;;;;;;;-2.64;67.63;101632.75;690079;28;46422;-63
2021/01/18 01:05:38;;;;;;;27.17;13.27;;;;;;;-2.64;67.48;101640.69;691669;28;45117;-63
2021/01/18 01:06:00;;;;;;;25.45;13.45;;;;;;;-2.65;67.64;101633.69;691246;28;46335;-63
2021/01/18 01:06:21;;;;;;;24.42;13.63;;;;;;;-2.65;67.57;101639.00;691246;28;22344;-63
2021/01/18 01:06:43;;;;;;;28.73;15.65;;;;;;;-2.68;67.60;101639.13;691741;28;45269;-63
2021/01/18 01:07:04;;;;;;;29.60;16.05;;;;;;;-2.67;67.61;101634.69;692332;28;21557;-61
2021/01/18 01:07:25;;;;;;;25.55;15.15;;;;;;;-2.67;67.77;101639.97;692772;28;21546;-63
2021/01/18 01:07:49;;;;;;;26.60;14.80;;;;;;;-2.69;67.72;101642.69;693974;28;21384;-63
2021/01/18 01:08:10;;;;;;;24.48;13.95;;;;;;;-2.68;67.44;101644.41;690879;28;69439;-62
2021/01/18 01:08:31;;;;;;;24.83;13.80;;;;;;;-2.69;67.63;101639.19;692728;28;21414;-63
2021/01/18 01:08:52;;;;;;;24.95;13.88;;;;;;;-2.68;67.58;101638.25;692776;28;22408;-63
2021/01/18 01:09:14;;;;;;;26.15;13.52;;;;;;;-2.74;67.78;101634.97;692043;28;43421;-61
2021/01/18 01:09:35;;;;;;;23.65;13.57;;;;;;;-2.68;67.53;101643.53;692031;28;22509;-63
2021/01/18 01:09:57;;;;;;;22.27;13.38;;;;;;;-2.69;67.66;101647.97;692474;28;34593;-63
2021/01/18 01:10:20;;;;;;;23.27;13.18;;;;;;;-2.70;67.85;101640.97;693823;28;21548;-64
2021/01/18 01:10:46;;;;;;;24.17;13.13;;;;;;;-2.74;67.59;101642.91;690964;28;61972;-63
2021/01/18 01:11:13;;;;;;;24.10;13.55;;;;;;;-2.74;67.75;101642.91;691191;28;59280;-64
2021/01/18 01:11:34;;;;;;;24.38;13.75;;;;;;;-2.74;67.65;101640.25;692516;28;22488;-62
2021/01/18 01:11:55;;;;;;;22.75;13.02;;;;;;;-2.71;67.61;101644.56;693298;28;859;-63
2021/01/18 01:12:20;;;;;;;23.42;12.88;;;;;;;-2.72;67.63;101637.53;692658;28;14075;-61
2021/01/18 01:12:42;;;;;;;24.60;13.00;;;;;;;-2.69;67.78;101644.47;692907;28;37896;-63
2021/01/18 01:13:05;;;;;;;25.60;13.50;;;;;;;-2.72;67.68;101638.38;691416;28;46186;-61
2021/01/18 01:13:26;;;;;;;26.85;13.85;;;;;;;-2.72;68.01;101640.19;692108;28;37550;-62
2021/01/18 01:13:49;;;;;;;26.60;13.98;;;;;;;-2.71;67.95;101639.25;693025;28;1910;-62
2021/01/18 01:14:10;;;;;;;26.58;13.98;;;;;;;-2.69;67.81;101636.56;691758;28;44533;-62
2021/01/18 01:14:31;;;;;;;25.20;13.32;;;;;;;-2.69;67.70;101634.75;692061;28;39033;-62
2021/01/18 01:14:53;;;;;;;23.85;13.32;;;;;;;-2.74;67.87;101624.38;692634;28;23536;-62
2021/01/18 01:15:14;;;;;;;25.20;13.50;;;;;;;-2.69;67.75;101636.56;693565;28;23507;-63
2021/01/18 01:15:36;;;;;;;25.23;13.57;;;;;;;-2.69;67.80;101633.91;691847;28;46336;-64
2021/01/18 01:15:57;;;;;;;27.02;13.63;;;;;;;-2.66;67.82;101625.84;691606;28;46335;-63
2021/01/18 01:16:18;;;;;;;24.95;13.20;;;;;;;-2.66;67.67;101642.56;692590;28;19371;-64
2021/01/18 01:16:42;;;;;;;27.00;14.02;;;;;;;-2.67;67.96;101635.53;691091;28;23422;-63
2021/01/18 01:17:04;;;;;;;26.63;13.75;;;;;;;-2.67;67.68;101638.19;689626;28;92550;-63
2021/01/18 01:17:25;;;;;;;25.70;13.88;;;;;;;-2.67;67.83;101637.34;691922;28;40433;-63
2021/01/18 01:17:47;;;;;;;25.55;13.93;;;;;;;-2.67;67.86;101638.19;691698;28;20594;-64
2021/01/18 01:18:08;;;;;;;27.92;14.25;;;;;;;-2.67;67.76;101632.03;692763;28;23658;-64
2021/01/18 01:18:30;;;;;;;25.33;13.70;;;;;;;-2.66;67.61;101639.06;691898;28;44318;-64
2021/01/18 01:18:51;;;;;;;24.83;13.05;;;;;;;-2.65;67.82;101633.69;691850;28;35989;-63
2021/01/18 01:19:12;;;;;;;26.42;13.20;;;;;;;-2.63;67.64;101638.91;692410;28;22375;-63
2021/01/18 01:19:34;;;;;;;27.27;14.25;;;;;;;-2.64;67.55;101640.69;692489;28;19594;-63
2021/01/18 01:19:55;;;;;;;25.10;13.55;;;;;;;-2.64;67.67;101631.91;692534;28;18763;-63
2021/01/18 01:20:17;;;;;;;23.77;13.15;;;;;;;-2.63;67.84;101639.75;693004;28;46358;-61
2021/01/18 01:20:39;;;;;;;25.35;14.07;;;;;;;-2.65;67.83;101638.09;688776;28;47430;-63
2021/01/18 01:21:00;;;;;;;26.15;13.85;;;;;;;-2.63;67.52;101636.28;689688;28;14100;-64
2021/01/18 01:21:22;;;;;;;27.80;13.85;;;;;;;-2.63;67.68;101637.13;689378;28;23483;-63
2021/01/18 01:21:48;;;;;;;25.55;13.02;;;;;;;-2.65;67.66;101628.41;688760;28;45998;-63
2021/01/18 01:22:09;;;;;;;26.38;13.48;;;;;;;-2.61;67.80;101639.69;685173;28;136733;-60
2021/01/18 01:22:34;;;;;;;24.55;13.73;;;;;;;-2.62;67.72;101636.19;690827;28;22361;-63
2021/01/18 01:22:56;;;;;;;26.30;14.02;;;;;;;-2.61;67.75;101635.25;689587;28;104642;-63
2021/01/18 01:23:17;;;;;;;25.02;13.52;;;;;;;-2.61;67.50;101631.75;691894;28;46517;-63
2021/01/18 01:23:39;;;;;;;23.05;13.27;;;;;;;-2.60;67.60;101633.47;692604;28;22403;-63
2021/01/18 01:24:00;;;;;;;26.58;13.35;;;;;;;-2.61;67.46;101631.75;692805;28;22396;-63
2021/01/18 01:24:21;;;;;;;27.75;13.85;;;;;;;-2.61;67.46;101629.97;692408;28;23545;-63
2021/01/18 01:24:43;;;;;;;24.60;13.85;;;;;;;-2.61;67.43;101629.97;692721;28;22412;-62
2021/01/18 01:25:05;;;;;;;22.77;12.55;;;;;;;-2.60;67.64;101634.34;692640;28;44870;-62
2021/01/18 01:25:27;;;;;;;23.70;12.70;;;;;;;-2.60;67.37;101636.09;690788;28;45261;-62
2021/01/18 01:25:49;;;;;;;23.77;13.07;;;;;;;-2.60;67.60;101633.47;689967;28;67525;-63
2021/01/18 01:26:10;;;;;;;26.45;13.90;;;;;;;-2.61;67.45;101637.91;692460;28;22506;-62
2021/01/18 01:26:32;;;;;;;24.83;13.48;;;;;;;-2.61;67.37;101637.91;691656;28;46338;-62
2021/01/18 01:26:53;;;;;;;19.92;12.40;;;;;;;-2.61;67.52;101639.69;692215;28;21540;-62
2021/01/18 01:27:15;;;;;;;21.55;12.60;;;;;;;-2.61;67.35;101634.41;692695;28;21518;-63
2021/01/18 01:27:37;;;;;;;22.00;12.60;;;;;;;-2.63;67.57;101634.47;691312;28;45337;-63
2021/01/18 01:28:03;;;;;;;23.20;13.45;;;;;;;-2.62;67.53;101630.88;691559;28;46202;-63
2021/01/18 01:28:24;;;;;;;25.58;13.95;;;;;;;-2.64;67.50;101635.41;688244;28;138314;-63
2021/01/18 01:28:46;;;;;;;22.73;13.02;;;;;;;-2.63;67.52;101637.13;692197;28;22488;-62
2021/01/18 01:29:07;;;;;;;23.45;13.50;;;;;;;-2.63;67.38;101636.28;691821;28;29283;-63
2021/01/18 01:29:28;;;;;;;22.58;13.50;;;;;;;-2.61;67.50;101640.53;692648;28;19121;-63
2021/01/18 01:29:49;;;;;;;21.48;12.45;;;;;;;-2.62;67.28;101630.88;692612;28;22434;-63
2021/01/18 01:30:13;;;;;;;24.95;12.95;;;;;;;-2.65;67.46;101633.69;693447;28;854;-63
2021/01/18 01:30:35;;;;;;;23.02;12.85;;;;;;;-2.65;67.20;101630.19;691602;28;71106;-61
2021/01/18 01:30:56;;;;;;;22.10;12.52;;;;;;;-2.64;67.34;101634.53;692652;28;22480;-64
2021/01/18 01:31:18;;;;;;;22.95;13.18;;;;;;;-2.66;67.15;101636.41;692718;28;21659;-63
2021/01/18 01:31:40;;;;;;;23.27;13.65;;;;;;;-2.70;67.20;101635.66;690533;28;69465;-63
2021/01/18 01:32:02;;;;;;;24.15;13.77;;;;;;;-2.70;67.26;101640.13;692395;28;23492;-63
2021/01/18 01:32:23;;;;;;;24.00;13.50;;;;;;;-2.71;67.20;101633.97;688681;28;46385;-62
2021/01/18 01:32:47;;;;;;;24.65;13.13;;;;;;;-2.71;67.42;101636.63;689731;28;22416;-63
2021/01/18 01:33:08;;;;;;;23.65;13.18;;;;;;;-2.74;67.26;101634.97;688662;28;83709;-63
2021/01/18 01:33:30;;;;;;;25.50;13.30;;;;;;;-2.74;67.25;101636.75;688954;28;44417;-63
2021/01/18 01:33:51;;;;;;;24.83;13.45;;;;;;;-2.75;67.38;101637.69;688547;28;46306;-61
2021/01/18 01:34:13;;;;;;;26.70;13.77;;;;;;;-2.76;67.16;101626.25;690755;28;21358;-63
2021/01/18 01:34:34;;;;;;;26.45;13.85;;;;;;;-2.75;67.57;101627.94;693028;28;992;-62
2021/01/18 01:34:56;;;;;;;23.92;13.32;;;;;;;-2.75;67.42;101627.94;692778;28;12312;-63
2021/01/18 01:35:18;;;;;;;26.40;13.73;;;;;;;-2.73;67.51;101630.53;692831;28;12820;-64
2021/01/18 01:35:40;;;;;;;25.98;13.60;;;;;;;-2.71;67.55;101636.63;693724;28;15009;-63
2021/01/18 01:36:03;;;;;;;26.65;14.32;;;;;;;-2.70;67.58;101626.88;693307;28;945;-61
2021/01/18 01:36:24;;;;;;;24.80;13.90;;;;;;;-2.73;67.42;101623.47;690634;28;69443;-62
2021/01/18 01:36:46;;;;;;;26.65;14.45;;;;;;;-2.73;67.27;101627.88;692072;28;24631;-63
2021/01/18 01:37:07;;;;;;;24.75;13.82;;;;;;;-2.73;67.35;101627.88;690780;28;46388;-64
2021/01/18 01:37:28;;;;;;;22.25;12.93;;;;;;;-2.71;67.29;101628.69;689410;28;17377;-63
2021/01/18 01:37:50;;;;;;;22.75;12.57;;;;;;;-2.70;67.39;101632.19;690278;28;1109;-64
2021/01/18 01:38:12;;;;;;;22.52;12.93;;;;;;;-2.70;67.53;101625.09;690162;28;44038;-64
2021/01/18 01:38:34;;;;;;;25.13;13.82;;;;;;;-2.71;67.42;101628.69;689598;28;23437;-63
2021/01/18 01:38:55;;;;;;;24.90;14.25;;;;;;;-2.73;67.40;101628.75;689061;28;32807;-63
2021/01/18 01:39:16;;;;;;;25.77;13.70;;;;;;;-2.72;67.41;101630.44;689288;28;46330;-63
2021/01/18 01:39:37;;;;;;;25.13;13.52;;;;;;;-2.72;67.36;101625.16;692323;28;22657;-63
2021/01/18 01:39:59;;;;;;;25.13;14.20;;;;;;;-2.72;67.35;101626.97;692487;28;23470;-63
2021/01/18 01:40:21;;;;;;;24.55;13.55;;;;;;;-2.73;67.56;101623.47;692643;28;23549;-64
2021/01/18 01:40:43;;;;;;;24.75;13.82;;;;;;;-2.74;67.24;101629.66;691657;28;70212;-63
2021/01/18 01:41:04;;;;;;;25.42;13.15;;;;;;;-2.75;67.31;101629.75;691606;28;44357;-63
2021/01/18 01:41:26;;;;;;;23.88;13.23;;;;;;;-2.74;67.28;101628.81;692640;28;22413;-63
2021/01/18 01:41:47;;;;;;;24.20;13.25;;;;;;;-2.76;67.31;101626.25;691776;28;46462;-63
2021/01/18 01:42:17;;;;;;;24.10;12.57;;;;;;;-2.73;67.32;101625.22;692446;28;23488;-63
2021/01/18 01:42:39;;;;;;;25.42;13.75;;;;;;;-2.75;67.43;101625.31;688443;28;136664;-63